sensor_id;sensor_type;location;lat;lon;timestamp;temperature;humidity
66190;DHT22;52992;52.084;5.412;2024-02-21T00:00:39;13.30;66.90
66190;DHT22;52992;52.084;5.412;2024-02-21T00:03:07;13.30;66.70
66190;DHT22;52992;52.084;5.412;2024-02-21T00:05:34;13.40;66.60
66190;DHT22;52992;52.084;5.412;2024-02-21T00:08:02;13.40;66.60
66190;DHT22;52992;52.084;5.412;2024-02-21T00:10:30;13.40;66.50
66190;DHT22;52992;52.084;5.412;2024-02-21T00:12:59;13.40;66.50
66190;DHT22;52992;52.084;5.412;2024-02-21T00:15:28;13.30;66.80
66190;DHT22;52992;52.084;5.412;2024-02-21T00:17:55;13.30;66.70
66190;DHT22;52992;52.084;5.412;2024-02-21T00:20:22;13.30;66.80
66190;DHT22;52992;52.084;5.412;2024-02-21T00:22:49;13.20;66.70
66190;DHT22;52992;52.084;5.412;2024-02-21T00:25:16;13.20;66.70
66190;DHT22;52992;52.084;5.412;2024-02-21T00:27:43;13.30;66.80
66190;DHT22;52992;52.084;5.412;2024-02-21T00:30:10;13.30;66.70
66190;DHT22;52992;52.084;5.412;2024-02-21T00:32:37;13.20;66.70
66190;DHT22;52992;52.084;5.412;2024-02-21T00:35:04;13.30;66.90
66190;DHT22;52992;52.084;5.412;2024-02-21T00:37:31;13.20;66.70
66190;DHT22;52992;52.084;5.412;2024-02-21T00:39:58;13.20;66.60
66190;DHT22;52992;52.084;5.412;2024-02-21T00:42:25;13.30;66.90
66190;DHT22;52992;52.084;5.412;2024-02-21T00:44:52;13.30;66.60
66190;DHT22;52992;52.084;5.412;2024-02-21T00:47:19;13.40;66.50
66190;DHT22;52992;52.084;5.412;2024-02-21T00:49:46;13.40;66.30
66190;DHT22;52992;52.084;5.412;2024-02-21T00:52:13;13.40;66.40
66190;DHT22;52992;52.084;5.412;2024-02-21T00:54:40;13.50;66.30
66190;DHT22;52992;52.084;5.412;2024-02-21T00:57:19;13.40;66.20
66190;DHT22;52992;52.084;5.412;2024-02-21T00:59:46;13.40;66.20
66190;DHT22;52992;52.084;5.412;2024-02-21T01:02:13;13.40;66.10
66190;DHT22;52992;52.084;5.412;2024-02-21T01:04:40;13.40;66.00
66190;DHT22;52992;52.084;5.412;2024-02-21T01:07:07;13.40;66.20
66190;DHT22;52992;52.084;5.412;2024-02-21T01:09:34;13.50;66.20
66190;DHT22;52992;52.084;5.412;2024-02-21T01:12:01;13.40;66.20
66190;DHT22;52992;52.084;5.412;2024-02-21T01:14:28;13.40;66.00
66190;DHT22;52992;52.084;5.412;2024-02-21T01:16:55;13.50;66.20
66190;DHT22;52992;52.084;5.412;2024-02-21T01:19:22;13.40;65.90
66190;DHT22;52992;52.084;5.412;2024-02-21T01:21:49;13.50;66.20
66190;DHT22;52992;52.084;5.412;2024-02-21T01:24:16;13.40;66.20
66190;DHT22;52992;52.084;5.412;2024-02-21T01:26:43;13.40;66.20
66190;DHT22;52992;52.084;5.412;2024-02-21T01:29:10;13.40;66.20
66190;DHT22;52992;52.084;5.412;2024-02-21T01:31:36;13.50;66.00
66190;DHT22;52992;52.084;5.412;2024-02-21T01:34:03;13.50;65.90
66190;DHT22;52992;52.084;5.412;2024-02-21T01:36:30;13.50;66.00
66190;DHT22;52992;52.084;5.412;2024-02-21T01:39:00;13.50;66.00
66190;DHT22;52992;52.084;5.412;2024-02-21T01:41:30;13.50;66.00
66190;DHT22;52992;52.084;5.412;2024-02-21T01:43:57;13.40;66.10
66190;DHT22;52992;52.084;5.412;2024-02-21T01:46:24;13.50;66.10
66190;DHT22;52992;52.084;5.412;2024-02-21T01:48:56;13.40;65.90
66190;DHT22;52992;52.084;5.412;2024-02-21T01:51:24;13.50;65.90
66190;DHT22;52992;52.084;5.412;2024-02-21T01:53:53;13.50;66.00
66190;DHT22;52992;52.084;5.412;2024-02-21T01:56:22;13.40;65.90
66190;DHT22;52992;52.084;5.412;2024-02-21T01:58:49;13.40;66.00
66190;DHT22;52992;52.084;5.412;2024-02-21T02:01:17;13.40;66.00
66190;DHT22;52992;52.084;5.412;2024-02-21T02:03:48;13.40;66.00
66190;DHT22;52992;52.084;5.412;2024-02-21T02:06:16;13.40;65.90
66190;DHT22;52992;52.084;5.412;2024-02-21T02:08:43;13.40;65.90
66190;DHT22;52992;52.084;5.412;2024-02-21T02:11:13;13.50;66.00
66190;DHT22;52992;52.084;5.412;2024-02-21T02:13:41;13.50;65.90
66190;DHT22;52992;52.084;5.412;2024-02-21T02:16:08;13.50;65.80
66190;DHT22;52992;52.084;5.412;2024-02-21T02:18:35;13.50;65.90
66190;DHT22;52992;52.084;5.412;2024-02-21T02:21:04;13.50;65.90
66190;DHT22;52992;52.084;5.412;2024-02-21T02:23:34;13.50;65.80
66190;DHT22;52992;52.084;5.412;2024-02-21T02:26:01;13.50;65.60
66190;DHT22;52992;52.084;5.412;2024-02-21T02:28:28;13.50;65.60
66190;DHT22;52992;52.084;5.412;2024-02-21T02:30:55;13.50;65.70
66190;DHT22;52992;52.084;5.412;2024-02-21T02:33:22;13.50;65.80
66190;DHT22;52992;52.084;5.412;2024-02-21T02:35:49;13.40;65.70
66190;DHT22;52992;52.084;5.412;2024-02-21T02:38:17;13.40;65.70
66190;DHT22;52992;52.084;5.412;2024-02-21T02:40:44;13.50;65.80
66190;DHT22;52992;52.084;5.412;2024-02-21T02:43:12;13.50;65.90
66190;DHT22;52992;52.084;5.412;2024-02-21T02:45:39;13.50;65.90
66190;DHT22;52992;52.084;5.412;2024-02-21T02:48:06;13.40;65.70
66190;DHT22;52992;52.084;5.412;2024-02-21T02:50:33;13.50;66.00
66190;DHT22;52992;52.084;5.412;2024-02-21T02:53:00;13.50;65.90
66190;DHT22;52992;52.084;5.412;2024-02-21T02:55:27;13.40;65.80
66190;DHT22;52992;52.084;5.412;2024-02-21T02:57:55;13.40;65.80
66190;DHT22;52992;52.084;5.412;2024-02-21T03:00:22;13.40;65.90
66190;DHT22;52992;52.084;5.412;2024-02-21T03:02:49;13.40;65.80
66190;DHT22;52992;52.084;5.412;2024-02-21T03:05:18;13.40;65.90
66190;DHT22;52992;52.084;5.412;2024-02-21T03:07:46;13.40;66.00
66190;DHT22;52992;52.084;5.412;2024-02-21T03:10:14;13.40;66.00
66190;DHT22;52992;52.084;5.412;2024-02-21T03:12:43;13.40;65.80
66190;DHT22;52992;52.084;5.412;2024-02-21T03:15:11;13.40;66.00
66190;DHT22;52992;52.084;5.412;2024-02-21T03:17:38;13.40;65.90
66190;DHT22;52992;52.084;5.412;2024-02-21T03:20:06;13.40;65.90
66190;DHT22;52992;52.084;5.412;2024-02-21T03:22:39;13.40;65.80
66190;DHT22;52992;52.084;5.412;2024-02-21T03:25:08;13.30;66.70
66190;DHT22;52992;52.084;5.412;2024-02-21T03:27:35;13.40;66.00
66190;DHT22;52992;52.084;5.412;2024-02-21T03:30:02;13.40;65.90
66190;DHT22;52992;52.084;5.412;2024-02-21T03:32:29;13.40;65.70
66190;DHT22;52992;52.084;5.412;2024-02-21T03:34:56;13.40;65.80
66190;DHT22;52992;52.084;5.412;2024-02-21T03:37:23;13.40;65.80
66190;DHT22;52992;52.084;5.412;2024-02-21T03:39:51;13.40;65.90
66190;DHT22;52992;52.084;5.412;2024-02-21T03:42:18;13.40;65.90
66190;DHT22;52992;52.084;5.412;2024-02-21T03:44:44;13.40;65.90
66190;DHT22;52992;52.084;5.412;2024-02-21T03:47:11;13.40;65.80
66190;DHT22;52992;52.084;5.412;2024-02-21T03:49:39;13.40;65.80
66190;DHT22;52992;52.084;5.412;2024-02-21T03:52:06;13.40;65.70
66190;DHT22;52992;52.084;5.412;2024-02-21T03:54:33;13.40;65.80
66190;DHT22;52992;52.084;5.412;2024-02-21T03:57:00;13.30;65.90
66190;DHT22;52992;52.084;5.412;2024-02-21T03:59:26;13.40;65.90
66190;DHT22;52992;52.084;5.412;2024-02-21T04:01:53;13.40;65.70
66190;DHT22;52992;52.084;5.412;2024-02-21T04:04:21;13.40;65.70
66190;DHT22;52992;52.084;5.412;2024-02-21T04:06:51;13.30;65.80
66190;DHT22;52992;52.084;5.412;2024-02-21T04:09:18;13.30;66.00
66190;DHT22;52992;52.084;5.412;2024-02-21T04:11:46;13.30;66.00
66190;DHT22;52992;52.084;5.412;2024-02-21T04:14:13;13.30;65.80
66190;DHT22;52992;52.084;5.412;2024-02-21T04:16:40;13.30;65.70
66190;DHT22;52992;52.084;5.412;2024-02-21T04:19:07;13.30;65.90
66190;DHT22;52992;52.084;5.412;2024-02-21T04:21:35;13.30;66.00
66190;DHT22;52992;52.084;5.412;2024-02-21T04:24:02;13.30;65.90
66190;DHT22;52992;52.084;5.412;2024-02-21T04:26:33;13.20;65.90
66190;DHT22;52992;52.084;5.412;2024-02-21T04:29:00;13.20;66.00
66190;DHT22;52992;52.084;5.412;2024-02-21T04:31:27;13.20;66.10
66190;DHT22;52992;52.084;5.412;2024-02-21T04:33:55;13.20;66.20
66190;DHT22;52992;52.084;5.412;2024-02-21T04:36:22;13.20;66.00
66190;DHT22;52992;52.084;5.412;2024-02-21T04:38:49;13.20;66.10
66190;DHT22;52992;52.084;5.412;2024-02-21T04:41:16;13.20;66.00
66190;DHT22;52992;52.084;5.412;2024-02-21T04:43:46;13.20;66.10
66190;DHT22;52992;52.084;5.412;2024-02-21T04:46:13;13.20;65.90
66190;DHT22;52992;52.084;5.412;2024-02-21T04:48:40;13.20;65.70
66190;DHT22;52992;52.084;5.412;2024-02-21T04:51:06;13.30;65.90
66190;DHT22;52992;52.084;5.412;2024-02-21T04:53:33;13.30;65.80
66190;DHT22;52992;52.084;5.412;2024-02-21T04:56:00;13.30;65.50
66190;DHT22;52992;52.084;5.412;2024-02-21T04:58:27;13.30;65.60
66190;DHT22;52992;52.084;5.412;2024-02-21T05:00:54;13.30;65.70
66190;DHT22;52992;52.084;5.412;2024-02-21T05:03:22;13.40;65.40
66190;DHT22;52992;52.084;5.412;2024-02-21T05:05:48;13.40;65.30
66190;DHT22;52992;52.084;5.412;2024-02-21T05:08:16;13.30;65.50
66190;DHT22;52992;52.084;5.412;2024-02-21T05:10:43;13.30;65.50
66190;DHT22;52992;52.084;5.412;2024-02-21T05:13:10;13.40;65.50
66190;DHT22;52992;52.084;5.412;2024-02-21T05:15:37;13.30;65.40
66190;DHT22;52992;52.084;5.412;2024-02-21T05:18:04;13.40;65.30
66190;DHT22;52992;52.084;5.412;2024-02-21T05:20:31;13.40;65.20
66190;DHT22;52992;52.084;5.412;2024-02-21T05:22:58;13.40;65.40
66190;DHT22;52992;52.084;5.412;2024-02-21T05:25:25;13.40;65.50
66190;DHT22;52992;52.084;5.412;2024-02-21T05:27:52;13.40;65.30
66190;DHT22;52992;52.084;5.412;2024-02-21T05:30:20;13.50;65.30
66190;DHT22;52992;52.084;5.412;2024-02-21T05:32:47;13.40;65.10
66190;DHT22;52992;52.084;5.412;2024-02-21T05:35:14;13.40;65.30
66190;DHT22;52992;52.084;5.412;2024-02-21T05:37:41;13.30;65.20
66190;DHT22;52992;52.084;5.412;2024-02-21T05:40:08;13.40;65.30
66190;DHT22;52992;52.084;5.412;2024-02-21T05:42:35;13.30;65.40
66190;DHT22;52992;52.084;5.412;2024-02-21T05:45:02;13.40;66.10
66190;DHT22;52992;52.084;5.412;2024-02-21T05:47:29;13.40;65.20
66190;DHT22;52992;52.084;5.412;2024-02-21T05:49:56;13.40;65.40
66190;DHT22;52992;52.084;5.412;2024-02-21T05:52:23;13.40;65.20
66190;DHT22;52992;52.084;5.412;2024-02-21T05:54:50;13.50;65.20
66190;DHT22;52992;52.084;5.412;2024-02-21T05:57:18;13.50;65.00
66190;DHT22;52992;52.084;5.412;2024-02-21T05:59:45;13.50;65.00
66190;DHT22;52992;52.084;5.412;2024-02-21T06:02:12;13.50;65.00
66190;DHT22;52992;52.084;5.412;2024-02-21T06:04:39;13.50;65.00
66190;DHT22;52992;52.084;5.412;2024-02-21T06:07:07;13.50;65.00
66190;DHT22;52992;52.084;5.412;2024-02-21T06:09:34;13.50;65.00
66190;DHT22;52992;52.084;5.412;2024-02-21T06:12:01;13.50;64.90
66190;DHT22;52992;52.084;5.412;2024-02-21T06:14:28;13.50;64.90
66190;DHT22;52992;52.084;5.412;2024-02-21T06:16:54;13.50;64.80
66190;DHT22;52992;52.084;5.412;2024-02-21T06:19:21;13.50;64.70
66190;DHT22;52992;52.084;5.412;2024-02-21T06:21:48;13.40;65.10
66190;DHT22;52992;52.084;5.412;2024-02-21T06:24:15;13.40;65.20
66190;DHT22;52992;52.084;5.412;2024-02-21T06:26:42;13.40;65.20
66190;DHT22;52992;52.084;5.412;2024-02-21T06:29:11;13.40;65.20
66190;DHT22;52992;52.084;5.412;2024-02-21T06:31:40;13.40;65.30
66190;DHT22;52992;52.084;5.412;2024-02-21T06:34:07;13.30;65.30
66190;DHT22;52992;52.084;5.412;2024-02-21T06:36:34;13.40;65.20
66190;DHT22;52992;52.084;5.412;2024-02-21T06:39:01;13.40;65.20
66190;DHT22;52992;52.084;5.412;2024-02-21T06:41:28;13.30;65.30
66190;DHT22;52992;52.084;5.412;2024-02-21T06:43:57;13.30;65.20
66190;DHT22;52992;52.084;5.412;2024-02-21T06:46:28;13.30;65.10
66190;DHT22;52992;52.084;5.412;2024-02-21T06:48:56;13.30;65.20
66190;DHT22;52992;52.084;5.412;2024-02-21T06:51:24;13.20;65.20
66190;DHT22;52992;52.084;5.412;2024-02-21T06:53:54;13.20;65.30
66190;DHT22;52992;52.084;5.412;2024-02-21T06:56:25;13.20;65.40
66190;DHT22;52992;52.084;5.412;2024-02-21T06:58:56;13.20;66.20
66190;DHT22;52992;52.084;5.412;2024-02-21T07:01:24;13.20;65.50
66190;DHT22;52992;52.084;5.412;2024-02-21T07:03:51;13.10;65.50
66190;DHT22;52992;52.084;5.412;2024-02-21T07:06:18;13.20;65.50
66190;DHT22;52992;52.084;5.412;2024-02-21T07:08:45;13.20;65.50
66190;DHT22;52992;52.084;5.412;2024-02-21T07:11:12;13.10;65.50
66190;DHT22;52992;52.084;5.412;2024-02-21T07:13:39;13.20;65.40
66190;DHT22;52992;52.084;5.412;2024-02-21T07:16:07;13.20;65.40
66190;DHT22;52992;52.084;5.412;2024-02-21T07:18:34;13.20;65.50
66190;DHT22;52992;52.084;5.412;2024-02-21T07:21:01;13.20;65.40
66190;DHT22;52992;52.084;5.412;2024-02-21T07:23:28;13.10;65.50
66190;DHT22;52992;52.084;5.412;2024-02-21T07:25:55;13.10;65.50
66190;DHT22;52992;52.084;5.412;2024-02-21T07:28:22;13.20;65.40
66190;DHT22;52992;52.084;5.412;2024-02-21T07:30:49;13.20;65.20
66190;DHT22;52992;52.084;5.412;2024-02-21T07:33:16;13.20;65.20
66190;DHT22;52992;52.084;5.412;2024-02-21T07:35:43;13.20;65.00
66190;DHT22;52992;52.084;5.412;2024-02-21T07:38:11;13.20;65.10
66190;DHT22;52992;52.084;5.412;2024-02-21T07:40:39;13.20;65.10
66190;DHT22;52992;52.084;5.412;2024-02-21T07:43:06;13.20;65.00
66190;DHT22;52992;52.084;5.412;2024-02-21T07:45:33;13.20;65.00
66190;DHT22;52992;52.084;5.412;2024-02-21T07:48:00;13.20;64.80
66190;DHT22;52992;52.084;5.412;2024-02-21T07:50:27;13.20;64.80
66190;DHT22;52992;52.084;5.412;2024-02-21T07:52:55;13.20;64.80
66190;DHT22;52992;52.084;5.412;2024-02-21T07:55:21;13.20;64.90
66190;DHT22;52992;52.084;5.412;2024-02-21T07:57:48;13.20;64.80
66190;DHT22;52992;52.084;5.412;2024-02-21T08:00:16;13.30;64.80
66190;DHT22;52992;52.084;5.412;2024-02-21T08:02:48;13.30;64.70
66190;DHT22;52992;52.084;5.412;2024-02-21T08:05:15;13.30;64.60
66190;DHT22;52992;52.084;5.412;2024-02-21T08:07:42;13.30;64.50
66190;DHT22;52992;52.084;5.412;2024-02-21T08:10:09;13.30;64.40
66190;DHT22;52992;52.084;5.412;2024-02-21T08:12:36;13.50;64.50
66190;DHT22;52992;52.084;5.412;2024-02-21T08:15:03;13.50;64.40
66190;DHT22;52992;52.084;5.412;2024-02-21T08:17:30;13.50;64.10
66190;DHT22;52992;52.084;5.412;2024-02-21T08:19:58;13.60;63.90
66190;DHT22;52992;52.084;5.412;2024-02-21T08:22:25;13.60;63.80
66190;DHT22;52992;52.084;5.412;2024-02-21T08:24:53;13.70;63.80
66190;DHT22;52992;52.084;5.412;2024-02-21T08:27:20;13.60;63.70
66190;DHT22;52992;52.084;5.412;2024-02-21T08:29:47;13.70;63.90
66190;DHT22;52992;52.084;5.412;2024-02-21T08:32:14;13.70;63.80
66190;DHT22;52992;52.084;5.412;2024-02-21T08:34:41;13.80;63.70
66190;DHT22;52992;52.084;5.412;2024-02-21T08:37:08;13.80;63.60
66190;DHT22;52992;52.084;5.412;2024-02-21T08:39:37;13.80;63.20
66190;DHT22;52992;52.084;5.412;2024-02-21T08:42:05;13.80;63.10
66190;DHT22;52992;52.084;5.412;2024-02-21T08:44:32;13.80;63.40
66190;DHT22;52992;52.084;5.412;2024-02-21T08:46:59;13.80;63.40
66190;DHT22;52992;52.084;5.412;2024-02-21T08:49:26;13.80;63.50
66190;DHT22;52992;52.084;5.412;2024-02-21T08:52:00;13.90;63.30
66190;DHT22;52992;52.084;5.412;2024-02-21T08:54:27;13.90;63.30
66190;DHT22;52992;52.084;5.412;2024-02-21T08:56:55;13.80;63.20
66190;DHT22;52992;52.084;5.412;2024-02-21T08:59:21;13.90;63.30
66190;DHT22;52992;52.084;5.412;2024-02-21T09:01:48;13.90;63.20
66190;DHT22;52992;52.084;5.412;2024-02-21T09:04:16;13.90;62.90
66190;DHT22;52992;52.084;5.412;2024-02-21T09:06:43;13.90;62.80
66190;DHT22;52992;52.084;5.412;2024-02-21T09:09:10;13.90;62.90
66190;DHT22;52992;52.084;5.412;2024-02-21T09:11:37;13.90;62.90
66190;DHT22;52992;52.084;5.412;2024-02-21T09:14:04;13.90;62.70
66190;DHT22;52992;52.084;5.412;2024-02-21T09:16:32;14.00;62.60
66190;DHT22;52992;52.084;5.412;2024-02-21T09:18:59;14.00;62.30
66190;DHT22;52992;52.084;5.412;2024-02-21T09:21:27;14.10;62.30
66190;DHT22;52992;52.084;5.412;2024-02-21T09:23:55;14.10;62.20
66190;DHT22;52992;52.084;5.412;2024-02-21T09:26:26;14.10;62.00
66190;DHT22;52992;52.084;5.412;2024-02-21T09:28:53;14.10;61.90
66190;DHT22;52992;52.084;5.412;2024-02-21T09:31:20;14.20;61.70
66190;DHT22;52992;52.084;5.412;2024-02-21T09:33:47;14.20;61.70
66190;DHT22;52992;52.084;5.412;2024-02-21T09:36:15;14.10;61.60
66190;DHT22;52992;52.084;5.412;2024-02-21T09:38:41;14.20;61.70
66190;DHT22;52992;52.084;5.412;2024-02-21T09:43:37;14.20;61.30
66190;DHT22;52992;52.084;5.412;2024-02-21T09:46:04;14.20;61.30
66190;DHT22;52992;52.084;5.412;2024-02-21T09:51:02;14.20;61.40
66190;DHT22;52992;52.084;5.412;2024-02-21T09:53:31;14.20;61.20
66190;DHT22;52992;52.084;5.412;2024-02-21T09:55:59;14.30;61.30
66190;DHT22;52992;52.084;5.412;2024-02-21T09:58:26;14.30;61.20
66190;DHT22;52992;52.084;5.412;2024-02-21T10:00:54;14.30;60.70
66190;DHT22;52992;52.084;5.412;2024-02-21T10:03:21;14.30;60.50
66190;DHT22;52992;52.084;5.412;2024-02-21T10:05:49;14.40;60.80
66190;DHT22;52992;52.084;5.412;2024-02-21T10:08:20;14.40;60.60
66190;DHT22;52992;52.084;5.412;2024-02-21T10:10:46;14.50;60.00
66190;DHT22;52992;52.084;5.412;2024-02-21T10:13:27;14.40;59.70
66190;DHT22;52992;52.084;5.412;2024-02-21T10:16:05;14.40;59.90
66190;DHT22;52992;52.084;5.412;2024-02-21T10:18:33;14.40;60.20
66190;DHT22;52992;52.084;5.412;2024-02-21T10:21:02;14.50;60.10
66190;DHT22;52992;52.084;5.412;2024-02-21T10:23:29;14.60;59.70
66190;DHT22;52992;52.084;5.412;2024-02-21T10:26:06;14.60;59.00
66190;DHT22;52992;52.084;5.412;2024-02-21T10:28:34;14.70;59.10
66190;DHT22;52992;52.084;5.412;2024-02-21T10:31:00;14.80;58.80
66190;DHT22;52992;52.084;5.412;2024-02-21T10:33:27;14.80;58.50
66190;DHT22;52992;52.084;5.412;2024-02-21T10:35:55;14.80;58.30
66190;DHT22;52992;52.084;5.412;2024-02-21T10:38:32;14.90;58.40
66190;DHT22;52992;52.084;5.412;2024-02-21T10:41:00;14.90;58.50
66190;DHT22;52992;52.084;5.412;2024-02-21T10:43:37;14.90;58.40
66190;DHT22;52992;52.084;5.412;2024-02-21T10:46:09;14.90;58.40
66190;DHT22;52992;52.084;5.412;2024-02-21T10:48:44;14.80;58.10
66190;DHT22;52992;52.084;5.412;2024-02-21T10:51:15;14.70;59.20
66190;DHT22;52992;52.084;5.412;2024-02-21T10:54:04;14.70;59.50
66190;DHT22;52992;52.084;5.412;2024-02-21T10:56:33;14.70;59.50
66190;DHT22;52992;52.084;5.412;2024-02-21T10:59:05;14.80;58.80
66190;DHT22;52992;52.084;5.412;2024-02-21T11:01:32;14.80;59.60
66190;DHT22;52992;52.084;5.412;2024-02-21T11:04:05;14.70;59.40
66190;DHT22;52992;52.084;5.412;2024-02-21T11:06:37;14.70;59.50
66190;DHT22;52992;52.084;5.412;2024-02-21T11:09:06;14.80;59.30
66190;DHT22;52992;52.084;5.412;2024-02-21T11:11:44;14.70;59.00
66190;DHT22;52992;52.084;5.412;2024-02-21T11:14:21;14.60;59.70
66190;DHT22;52992;52.084;5.412;2024-02-21T11:16:48;14.60;60.20
66190;DHT22;52992;52.084;5.412;2024-02-21T11:19:23;14.50;60.70
66190;DHT22;52992;52.084;5.412;2024-02-21T11:21:51;14.40;60.80
66190;DHT22;52992;52.084;5.412;2024-02-21T11:24:34;14.30;61.10
66190;DHT22;52992;52.084;5.412;2024-02-21T11:27:19;14.20;61.20
66190;DHT22;52992;52.084;5.412;2024-02-21T11:29:56;14.10;62.20
66190;DHT22;52992;52.084;5.412;2024-02-21T11:32:25;14.10;61.80
66190;DHT22;52992;52.084;5.412;2024-02-21T11:35:00;14.10;61.90
66190;DHT22;52992;52.084;5.412;2024-02-21T11:37:35;14.00;61.90
66190;DHT22;52992;52.084;5.412;2024-02-21T11:40:06;14.00;62.10
66190;DHT22;52992;52.084;5.412;2024-02-21T11:42:37;14.00;62.20
66190;DHT22;52992;52.084;5.412;2024-02-21T11:45:05;14.00;62.40
66190;DHT22;52992;52.084;5.412;2024-02-21T11:47:33;13.90;62.20
66190;DHT22;52992;52.084;5.412;2024-02-21T11:50:00;13.90;62.40
66190;DHT22;52992;52.084;5.412;2024-02-21T11:52:27;13.90;62.50
66190;DHT22;52992;52.084;5.412;2024-02-21T11:54:55;13.90;62.30
66190;DHT22;52992;52.084;5.412;2024-02-21T11:57:30;13.90;62.30
66190;DHT22;52992;52.084;5.412;2024-02-21T11:59:57;14.00;62.20
66190;DHT22;52992;52.084;5.412;2024-02-21T12:02:30;14.10;61.30
66190;DHT22;52992;52.084;5.412;2024-02-21T12:04:57;14.20;61.20
66190;DHT22;52992;52.084;5.412;2024-02-21T12:07:24;14.40;61.20
66190;DHT22;52992;52.084;5.412;2024-02-21T12:09:52;14.60;60.30
66190;DHT22;52992;52.084;5.412;2024-02-21T12:12:22;14.70;59.90
66190;DHT22;52992;52.084;5.412;2024-02-21T12:14:55;15.00;58.80
66190;DHT22;52992;52.084;5.412;2024-02-21T12:17:25;15.10;59.00
66190;DHT22;52992;52.084;5.412;2024-02-21T12:19:52;15.20;57.90
66190;DHT22;52992;52.084;5.412;2024-02-21T12:22:19;15.40;57.70
66190;DHT22;52992;52.084;5.412;2024-02-21T12:24:46;15.60;57.00
66190;DHT22;52992;52.084;5.412;2024-02-21T12:27:15;15.60;56.80
66190;DHT22;52992;52.084;5.412;2024-02-21T12:29:42;15.50;57.20
66190;DHT22;52992;52.084;5.412;2024-02-21T12:32:09;15.40;57.60
66190;DHT22;52992;52.084;5.412;2024-02-21T12:34:36;15.30;57.80
66190;DHT22;52992;52.084;5.412;2024-02-21T12:37:19;15.20;57.50
66190;DHT22;52992;52.084;5.412;2024-02-21T12:39:47;15.20;58.20
66190;DHT22;52992;52.084;5.412;2024-02-21T12:42:14;15.30;58.30
66190;DHT22;52992;52.084;5.412;2024-02-21T12:44:40;15.30;57.90
66190;DHT22;52992;52.084;5.412;2024-02-21T12:47:08;15.30;58.20
66190;DHT22;52992;52.084;5.412;2024-02-21T12:49:36;15.40;58.10
66190;DHT22;52992;52.084;5.412;2024-02-21T12:52:04;15.30;57.80
66190;DHT22;52992;52.084;5.412;2024-02-21T12:54:31;15.30;57.90
66190;DHT22;52992;52.084;5.412;2024-02-21T12:56:58;15.40;58.10
66190;DHT22;52992;52.084;5.412;2024-02-21T12:59:30;15.40;57.90
66190;DHT22;52992;52.084;5.412;2024-02-21T13:01:57;15.50;57.80
66190;DHT22;52992;52.084;5.412;2024-02-21T13:04:24;15.50;57.50
66190;DHT22;52992;52.084;5.412;2024-02-21T13:06:54;15.40;57.50
66190;DHT22;52992;52.084;5.412;2024-02-21T13:09:22;15.40;58.60
66190;DHT22;52992;52.084;5.412;2024-02-21T13:11:49;15.40;58.20
66190;DHT22;52992;52.084;5.412;2024-02-21T13:14:18;15.40;58.20
66190;DHT22;52992;52.084;5.412;2024-02-21T13:16:45;15.60;58.00
66190;DHT22;52992;52.084;5.412;2024-02-21T13:19:12;15.70;57.40
66190;DHT22;52992;52.084;5.412;2024-02-21T13:21:41;15.70;56.80
66190;DHT22;52992;52.084;5.412;2024-02-21T13:24:07;15.60;56.90
66190;DHT22;52992;52.084;5.412;2024-02-21T13:26:34;15.60;57.10
66190;DHT22;52992;52.084;5.412;2024-02-21T13:29:01;15.50;57.30
66190;DHT22;52992;52.084;5.412;2024-02-21T13:31:29;15.30;58.60
66190;DHT22;52992;52.084;5.412;2024-02-21T13:33:56;15.20;58.30
66190;DHT22;52992;52.084;5.412;2024-02-21T13:36:23;15.10;58.40
66190;DHT22;52992;52.084;5.412;2024-02-21T13:38:50;15.10;58.80
66190;DHT22;52992;52.084;5.412;2024-02-21T13:41:18;15.10;59.60
66190;DHT22;52992;52.084;5.412;2024-02-21T13:43:44;15.00;58.30
66190;DHT22;52992;52.084;5.412;2024-02-21T13:46:14;15.00;58.90
66190;DHT22;52992;52.084;5.412;2024-02-21T13:48:41;15.00;58.70
66190;DHT22;52992;52.084;5.412;2024-02-21T13:51:08;14.90;58.70
66190;DHT22;52992;52.084;5.412;2024-02-21T13:53:34;14.90;58.80
66190;DHT22;52992;52.084;5.412;2024-02-21T13:56:01;14.90;58.10
66190;DHT22;52992;52.084;5.412;2024-02-21T13:58:28;14.90;58.50
66190;DHT22;52992;52.084;5.412;2024-02-21T14:00:55;14.80;58.20
66190;DHT22;52992;52.084;5.412;2024-02-21T14:03:23;14.90;58.50
66190;DHT22;52992;52.084;5.412;2024-02-21T14:05:52;14.90;58.30
66190;DHT22;52992;52.084;5.412;2024-02-21T14:08:19;14.90;58.20
66190;DHT22;52992;52.084;5.412;2024-02-21T14:10:46;14.90;58.20
66190;DHT22;52992;52.084;5.412;2024-02-21T14:13:14;14.90;58.30
66190;DHT22;52992;52.084;5.412;2024-02-21T14:15:43;14.90;58.40
66190;DHT22;52992;52.084;5.412;2024-02-21T14:18:12;14.90;58.40
66190;DHT22;52992;52.084;5.412;2024-02-21T14:20:39;14.90;58.40
66190;DHT22;52992;52.084;5.412;2024-02-21T14:23:06;14.90;58.40
66190;DHT22;52992;52.084;5.412;2024-02-21T14:25:33;14.90;58.60
66190;DHT22;52992;52.084;5.412;2024-02-21T14:28:00;14.90;58.30
66190;DHT22;52992;52.084;5.412;2024-02-21T14:30:27;14.90;58.30
66190;DHT22;52992;52.084;5.412;2024-02-21T14:32:55;14.80;58.00
66190;DHT22;52992;52.084;5.412;2024-02-21T14:35:22;14.80;57.70
66190;DHT22;52992;52.084;5.412;2024-02-21T14:37:49;14.70;57.90
66190;DHT22;52992;52.084;5.412;2024-02-21T14:40:16;14.70;58.50
66190;DHT22;52992;52.084;5.412;2024-02-21T14:42:43;14.70;58.20
66190;DHT22;52992;52.084;5.412;2024-02-21T14:45:10;14.70;57.80
66190;DHT22;52992;52.084;5.412;2024-02-21T14:47:37;14.60;57.90
66190;DHT22;52992;52.084;5.412;2024-02-21T14:50:04;14.60;58.10
66190;DHT22;52992;52.084;5.412;2024-02-21T14:52:32;14.60;58.50
66190;DHT22;52992;52.084;5.412;2024-02-21T14:55:04;14.60;58.40
66190;DHT22;52992;52.084;5.412;2024-02-21T14:57:32;14.60;58.60
66190;DHT22;52992;52.084;5.412;2024-02-21T14:59:59;14.50;59.70
66190;DHT22;52992;52.084;5.412;2024-02-21T15:02:27;14.50;58.90
66190;DHT22;52992;52.084;5.412;2024-02-21T15:04:55;14.50;59.30
66190;DHT22;52992;52.084;5.412;2024-02-21T15:07:23;14.50;59.40
66190;DHT22;52992;52.084;5.412;2024-02-21T15:09:53;14.40;59.70
66190;DHT22;52992;52.084;5.412;2024-02-21T15:12:20;14.30;60.20
66190;DHT22;52992;52.084;5.412;2024-02-21T15:14:50;14.20;60.50
66190;DHT22;52992;52.084;5.412;2024-02-21T15:17:18;14.10;60.90
66190;DHT22;52992;52.084;5.412;2024-02-21T15:19:45;14.10;60.70
66190;DHT22;52992;52.084;5.412;2024-02-21T15:22:12;13.90;61.60
66190;DHT22;52992;52.084;5.412;2024-02-21T15:24:40;13.90;62.20
66190;DHT22;52992;52.084;5.412;2024-02-21T15:27:08;13.80;62.50
66190;DHT22;52992;52.084;5.412;2024-02-21T15:29:35;13.80;62.50
66190;DHT22;52992;52.084;5.412;2024-02-21T15:32:05;13.80;63.00
66190;DHT22;52992;52.084;5.412;2024-02-21T15:34:32;13.80;63.30
66190;DHT22;52992;52.084;5.412;2024-02-21T15:37:00;13.70;63.40
66190;DHT22;52992;52.084;5.412;2024-02-21T15:39:27;13.70;63.70